Aviation Digital Data Service (ADDS)

Output produced by METARs form (0647 UTC 22 January 2021)
found at http://aviationweather.gov/metar/data/
 
METAR text: KJOT 220635Z AUTO 29009G14KT 10SM CLR M01/M06 A2990 RMK AO2 T10121060
Conditions at: KJOT (JOLIET , IL, US) observed 0635 UTC 22 January 2021
Temperature: -1.2°C (30°F)
Dewpoint: -6.0°C (21°F) [RH = 70%]
Pressure (altimeter): 29.90 inches Hg (1012.6 mb)
Winds: from the WNW (290 degrees) at 10 MPH (9 knots; 4.6 m/s)
gusting to 16 MPH (14 knots; 7.2 m/s)
Visibility: 10 or more miles (16+ km)
Ceiling: at least 12,000 feet AGL
Clouds: sky clear below 12,000 feet AGL
Weather: automated observation with no human augmentation;
there may or may not be significant weather present at this time